createdAt,value
2017-09-08T00:01:58.437Z,10.68
2017-09-08T00:04:28.159Z,10.65
2017-09-08T00:06:57.885Z,10.61
2017-09-08T00:09:27.642Z,10.58
2017-09-08T00:11:57.411Z,10.53
2017-09-08T00:14:26.994Z,10.48
2017-09-08T00:16:56.810Z,10.42
2017-09-08T00:19:26.528Z,10.35
2017-09-08T00:21:56.261Z,10.29
2017-09-08T00:24:26.029Z,10.24
2017-09-08T00:26:55.755Z,10.17
2017-09-08T00:29:25.669Z,10.12
2017-09-08T00:31:55.401Z,10.08
2017-09-08T00:34:25.149Z,10.04
2017-09-08T00:36:54.921Z,10.02
2017-09-08T00:39:24.654Z,9.97
2017-09-08T00:41:54.384Z,9.95
2017-09-08T00:44:24.850Z,9.93
2017-09-08T00:46:54.592Z,9.90
2017-09-08T00:49:24.404Z,9.86
2017-09-08T00:51:54.121Z,9.82
2017-09-08T00:54:23.844Z,9.79
2017-09-08T00:56:53.570Z,9.75
2017-09-08T00:59:23.289Z,9.70
2017-09-08T01:01:53.034Z,9.67
2017-09-08T01:04:22.760Z,9.64
2017-09-08T01:06:52.472Z,9.61
2017-09-08T01:09:22.264Z,9.56
2017-09-08T01:11:52.796Z,9.56
2017-09-08T01:14:22.540Z,9.52
2017-09-08T01:16:52.296Z,9.49
2017-09-08T01:19:21.828Z,9.46
2017-09-08T01:21:51.553Z,9.41
2017-09-08T01:24:21.282Z,9.38
2017-09-08T01:26:50.999Z,9.35
2017-09-08T01:29:20.716Z,9.35
2017-09-08T01:31:50.260Z,9.30
2017-09-08T01:34:19.982Z,9.28
2017-09-08T01:36:49.709Z,9.28
2017-09-08T01:39:19.457Z,9.24
2017-09-08T01:41:49.022Z,9.21
2017-09-08T01:44:18.771Z,9.16
2017-09-08T01:46:48.524Z,9.14
2017-09-08T01:49:18.261Z,9.08
2017-09-08T01:51:47.987Z,9.07
2017-09-08T01:54:17.707Z,9.08
2017-09-08T01:56:47.411Z,9.05
2017-09-08T01:59:17.143Z,9.02
2017-09-08T02:01:46.870Z,8.98
2017-09-08T02:04:16.614Z,8.98
2017-09-08T02:06:46.177Z,8.94
2017-09-08T02:09:15.896Z,8.94
2017-09-08T02:11:45.639Z,8.94
2017-09-08T02:14:15.370Z,8.89
2017-09-08T02:16:45.112Z,8.86
2017-09-08T02:19:14.852Z,8.84
2017-09-08T02:21:49.730Z,8.81
2017-09-08T02:24:19.514Z,8.79
2017-09-08T02:26:49.225Z,8.77
2017-09-08T02:29:18.953Z,8.80
2017-09-08T02:31:48.677Z,8.80
2017-09-08T02:34:18.397Z,8.84
2017-09-08T02:36:48.210Z,8.83
2017-09-08T02:39:17.940Z,8.83
2017-09-08T02:41:47.669Z,8.79
2017-09-08T02:44:17.409Z,8.75
2017-09-08T02:46:47.132Z,8.71
2017-09-08T02:49:16.864Z,8.67
2017-09-08T02:51:46.589Z,8.66
2017-09-08T02:54:16.349Z,8.65
2017-09-08T02:56:46.077Z,8.60
2017-09-08T02:59:15.624Z,8.60
2017-09-08T03:01:45.349Z,8.61
2017-09-08T03:04:15.081Z,8.57
2017-09-08T03:06:44.813Z,8.60
2017-09-08T03:09:14.568Z,8.65
2017-09-08T03:11:44.300Z,8.68
2017-09-08T03:14:14.041Z,8.66
2017-09-08T03:16:43.776Z,8.64
2017-09-08T03:19:13.513Z,8.63
2017-09-08T03:21:43.361Z,8.60
2017-09-08T03:24:13.087Z,8.59
2017-09-08T03:26:42.798Z,8.59
2017-09-08T03:29:12.550Z,8.58
2017-09-08T03:31:42.342Z,8.56
2017-09-08T03:34:12.080Z,8.57
2017-09-08T03:36:41.929Z,8.59
2017-09-08T03:39:11.644Z,8.63
2017-09-08T03:41:41.390Z,8.65
2017-09-08T03:44:11.130Z,8.66
2017-09-08T03:46:40.885Z,8.67
2017-09-08T03:49:10.624Z,8.69
2017-09-08T03:51:40.468Z,8.68
2017-09-08T03:54:10.199Z,8.67
2017-09-08T03:56:40.055Z,8.65
2017-09-08T03:59:09.761Z,8.65
2017-09-08T04:01:39.549Z,8.65
2017-09-08T04:04:09.063Z,8.64
2017-09-08T04:06:38.800Z,8.62
2017-09-08T04:09:08.607Z,8.60
2017-09-08T04:11:38.352Z,8.62
2017-09-08T04:14:08.098Z,8.68
2017-09-08T04:16:37.637Z,8.67
2017-09-08T04:19:07.389Z,8.60
2017-09-08T04:21:37.148Z,8.52
2017-09-08T04:24:06.900Z,8.45
2017-09-08T04:26:36.658Z,8.37
2017-09-08T04:29:06.628Z,8.33
2017-09-08T04:31:36.332Z,8.30
2017-09-08T04:34:06.083Z,8.28
2017-09-08T04:36:35.903Z,8.28
2017-09-08T04:39:05.034Z,8.29
2017-09-08T04:41:34.961Z,8.32
2017-09-08T04:44:04.688Z,8.31
2017-09-08T04:46:34.438Z,8.35
2017-09-08T04:49:04.158Z,8.36
2017-09-08T04:51:33.917Z,8.38
2017-09-08T04:54:04.069Z,8.41
2017-09-08T04:56:33.913Z,8.40
2017-09-08T04:59:03.765Z,8.39
2017-09-08T05:01:33.517Z,8.39
2017-09-08T05:04:03.241Z,8.39
2017-09-08T05:06:33.022Z,8.38
2017-09-08T05:09:02.665Z,8.41
2017-09-08T05:11:32.367Z,8.44
2017-09-08T05:14:01.925Z,8.48
2017-09-08T05:16:31.884Z,8.53
2017-09-08T05:19:01.597Z,8.58
2017-09-08T05:21:31.337Z,8.64
2017-09-08T05:24:01.062Z,8.72
2017-09-08T05:26:30.780Z,8.80
2017-09-08T05:29:00.536Z,8.88
2017-09-08T05:31:30.259Z,8.96
2017-09-08T05:33:59.994Z,9.04
2017-09-08T05:36:29.727Z,9.13
2017-09-08T05:38:59.454Z,9.23
2017-09-08T05:41:29.188Z,9.34
2017-09-08T05:43:58.900Z,9.43
2017-09-08T05:46:28.648Z,9.53
2017-09-08T05:48:58.396Z,9.63
2017-09-08T05:51:28.134Z,9.72
2017-09-08T05:53:57.685Z,9.82
2017-09-08T05:56:27.422Z,9.92
2017-09-08T05:58:57.144Z,10.04
2017-09-08T06:01:26.918Z,10.16
2017-09-08T06:03:56.668Z,10.27
2017-09-08T06:06:26.619Z,10.40
2017-09-08T06:08:56.370Z,10.53
2017-09-08T06:11:26.164Z,10.66
2017-09-08T06:13:55.897Z,10.78
2017-09-08T06:16:25.660Z,10.92
2017-09-08T06:18:56.227Z,11.04
2017-09-08T06:21:25.972Z,11.15
2017-09-08T06:23:55.741Z,11.28
2017-09-08T06:26:25.485Z,11.41
2017-09-08T06:28:55.234Z,11.55
2017-09-08T06:31:24.980Z,11.68
2017-09-08T06:33:54.742Z,11.80
2017-09-08T06:36:24.472Z,11.92
2017-09-08T06:38:54.263Z,12.03
2017-09-08T06:41:24.000Z,12.16
2017-09-08T06:43:53.733Z,12.29
2017-09-08T06:46:24.240Z,12.44
2017-09-08T06:48:53.984Z,12.57
2017-09-08T06:51:23.804Z,12.72
2017-09-08T06:53:53.549Z,12.86
2017-09-08T06:56:23.318Z,12.99
2017-09-08T06:58:53.073Z,13.13
2017-09-08T07:01:22.882Z,13.26
2017-09-08T07:03:52.616Z,13.40
2017-09-08T07:06:22.409Z,13.53
2017-09-08T07:08:52.129Z,13.67
2017-09-08T07:11:21.864Z,13.78
2017-09-08T07:13:52.261Z,13.93
2017-09-08T07:16:22.004Z,14.07
2017-09-08T07:18:51.748Z,14.23
2017-09-08T07:21:21.499Z,14.32
2017-09-08T07:23:51.235Z,14.47
2017-09-08T07:26:20.980Z,14.55
2017-09-08T07:28:50.741Z,14.70
2017-09-08T07:31:20.480Z,14.81
2017-09-08T07:33:50.083Z,14.95
2017-09-08T07:36:19.819Z,15.10
2017-09-08T07:38:49.559Z,15.06
2017-09-08T07:41:19.306Z,15.22
2017-09-08T07:43:49.068Z,15.18
2017-09-08T07:46:18.621Z,15.37
2017-09-08T07:48:48.885Z,15.59
2017-09-08T07:51:18.449Z,15.69
2017-09-08T07:53:47.937Z,15.52
2017-09-08T07:56:17.385Z,15.71
2017-09-08T07:58:46.847Z,15.88
2017-09-08T08:01:16.298Z,15.95
2017-09-08T08:03:45.769Z,16.02
2017-09-08T08:06:15.287Z,16.25
2017-09-08T08:08:44.825Z,16.25
2017-09-08T08:11:14.285Z,16.41
2017-09-08T08:13:43.746Z,16.49
2017-09-08T08:16:13.232Z,16.57
2017-09-08T08:18:42.682Z,16.84
2017-09-08T08:21:12.125Z,16.99
2017-09-08T08:23:41.585Z,17.08
2017-09-08T08:26:11.052Z,17.19
2017-09-08T08:28:40.509Z,17.37
2017-09-08T08:31:09.977Z,17.32
2017-09-08T08:33:39.424Z,17.49
2017-09-08T08:36:08.892Z,17.33
2017-09-08T08:38:38.353Z,17.44
2017-09-08T08:41:07.798Z,17.53
2017-09-08T08:43:37.260Z,17.43
2017-09-08T08:46:06.719Z,17.66
2017-09-08T08:48:36.155Z,17.88
2017-09-08T08:51:05.600Z,18.17
2017-09-08T08:53:35.085Z,18.33
2017-09-08T08:56:04.525Z,18.50
2017-09-08T08:58:33.977Z,18.59
2017-09-08T09:01:03.454Z,18.72
2017-09-08T09:03:32.900Z,18.79
2017-09-08T09:06:02.372Z,18.81
2017-09-08T09:08:31.821Z,18.97
2017-09-08T09:11:01.290Z,19.17
2017-09-08T09:13:30.717Z,19.28
2017-09-08T09:16:00.295Z,19.54
2017-09-08T09:18:29.745Z,19.57
2017-09-08T09:20:59.172Z,19.62
2017-09-08T09:23:28.695Z,19.78
2017-09-08T09:25:58.138Z,19.71
2017-09-08T09:28:27.588Z,20.02
2017-09-08T09:30:57.035Z,20.04
2017-09-08T09:33:26.498Z,20.33
2017-09-08T09:35:55.933Z,20.49
2017-09-08T09:38:25.377Z,20.54
2017-09-08T09:40:54.842Z,20.62
2017-09-08T09:43:24.299Z,20.56
2017-09-08T09:45:53.830Z,20.56
2017-09-08T09:48:23.277Z,20.71
2017-09-08T09:50:52.803Z,20.63
2017-09-08T09:53:22.076Z,20.99
2017-09-08T09:55:51.539Z,21.26
2017-09-08T09:58:20.973Z,21.46
2017-09-08T10:00:50.431Z,21.30
2017-09-08T10:03:19.869Z,21.18
2017-09-08T10:05:49.319Z,21.44
2017-09-08T10:08:18.796Z,21.66
2017-09-08T10:10:48.224Z,21.74
2017-09-08T10:13:17.688Z,21.86
2017-09-08T10:15:47.132Z,21.97
2017-09-08T10:18:16.600Z,22.07
2017-09-08T10:20:46.040Z,22.14
2017-09-08T10:23:15.506Z,22.02
2017-09-08T10:25:44.981Z,22.12
2017-09-08T10:28:14.421Z,22.12
2017-09-08T10:30:43.869Z,21.99
2017-09-08T10:33:13.352Z,22.36
2017-09-08T10:35:42.796Z,22.33
2017-09-08T10:38:12.305Z,22.34
2017-09-08T10:40:41.739Z,22.47
2017-09-08T10:43:11.234Z,22.58
2017-09-08T10:45:40.660Z,22.94
2017-09-08T10:48:10.097Z,23.20
2017-09-08T10:50:43.643Z,22.61
2017-09-08T10:53:12.929Z,23.00
2017-09-08T10:55:42.367Z,23.11
2017-09-08T10:58:11.790Z,23.20
2017-09-08T11:00:41.052Z,23.53
2017-09-08T11:03:10.318Z,23.51
2017-09-08T11:05:39.763Z,23.59
2017-09-08T11:08:09.225Z,23.74
2017-09-08T11:10:38.669Z,23.96
2017-09-08T11:13:08.120Z,24.13
2017-09-08T11:15:37.573Z,24.33
2017-09-08T11:18:06.812Z,24.38
2017-09-08T11:20:36.216Z,24.58
2017-09-08T11:23:05.652Z,24.52
2017-09-08T11:25:35.288Z,24.75
2017-09-08T11:28:04.739Z,24.97
2017-09-08T11:30:34.205Z,25.06
2017-09-08T11:33:08.993Z,25.26
2017-09-08T11:35:43.761Z,25.20
2017-09-08T11:38:13.222Z,25.12
2017-09-08T11:40:42.661Z,24.48
2017-09-08T11:43:12.096Z,24.88
2017-09-08T11:45:41.549Z,24.78
2017-09-08T11:48:11.017Z,24.65
2017-09-08T11:50:40.464Z,24.68
2017-09-08T11:53:09.894Z,24.16
2017-09-08T11:55:39.345Z,24.41
2017-09-08T11:58:08.804Z,24.76
2017-09-08T12:00:38.156Z,24.62
2017-09-08T12:03:07.428Z,24.72
2017-09-08T12:05:36.692Z,24.63
2017-09-08T12:08:06.156Z,24.92
2017-09-08T12:10:35.598Z,25.24
2017-09-08T12:13:05.057Z,25.61
2017-09-08T12:15:34.497Z,26.19
2017-09-08T12:18:03.945Z,26.26
2017-09-08T12:20:33.393Z,27.57
2017-09-08T12:23:02.830Z,27.78
2017-09-08T12:25:32.284Z,28.35
2017-09-08T12:28:01.749Z,28.41
2017-09-08T12:30:31.180Z,28.91
2017-09-08T12:33:00.678Z,29.29
2017-09-08T12:35:30.216Z,29.61
2017-09-08T12:37:59.645Z,30.56
2017-09-08T12:40:29.086Z,31.39
2017-09-08T12:42:58.553Z,31.81
2017-09-08T12:45:28.000Z,32.89
2017-09-08T12:47:57.449Z,33.39
2017-09-08T12:50:26.954Z,33.52
2017-09-08T12:52:56.394Z,34.27
2017-09-08T12:55:25.833Z,33.55
2017-09-08T12:57:55.292Z,34.22
2017-09-08T13:00:24.745Z,34.09
2017-09-08T13:02:54.076Z,34.58
2017-09-08T13:05:23.571Z,34.45
2017-09-08T13:07:53.004Z,33.93
2017-09-08T13:10:22.478Z,34.45
2017-09-08T13:12:51.912Z,33.75
2017-09-08T13:15:21.397Z,34.25
2017-09-08T13:17:50.850Z,34.85
2017-09-08T13:20:20.351Z,35.47
2017-09-08T13:22:49.785Z,35.33
2017-09-08T13:25:19.272Z,34.70
2017-09-08T13:27:48.714Z,34.49
2017-09-08T13:30:18.196Z,34.49
2017-09-08T13:32:47.635Z,35.19
2017-09-08T13:35:17.155Z,34.50
2017-09-08T13:37:46.666Z,34.65
2017-09-08T13:40:16.140Z,35.55
2017-09-08T13:42:45.569Z,35.48
2017-09-08T13:45:15.060Z,35.06
2017-09-08T13:47:44.513Z,34.12
2017-09-08T13:50:14.009Z,35.35
2017-09-08T13:52:43.441Z,35.38
2017-09-08T13:55:12.914Z,35.34
2017-09-08T13:57:42.374Z,35.79
2017-09-08T14:00:11.863Z,35.62
2017-09-08T14:02:41.285Z,35.44
2017-09-08T14:05:10.636Z,35.53
2017-09-08T14:07:39.950Z,35.72
2017-09-08T14:10:09.433Z,35.92
2017-09-08T14:12:38.708Z,35.99
2017-09-08T14:15:08.186Z,36.13
2017-09-08T14:17:37.619Z,35.94
2017-09-08T14:20:07.109Z,36.32
2017-09-08T14:22:36.597Z,36.44
2017-09-08T14:25:06.101Z,35.77
2017-09-08T14:27:35.625Z,36.46
2017-09-08T14:30:05.082Z,36.32
2017-09-08T14:32:34.523Z,36.22
2017-09-08T14:35:04.000Z,36.21
2017-09-08T14:37:33.445Z,35.41
2017-09-08T14:40:02.944Z,35.57
2017-09-08T14:42:32.176Z,35.98
2017-09-08T14:45:01.666Z,36.67
2017-09-08T14:47:31.094Z,36.72
2017-09-08T14:50:00.545Z,35.90
2017-09-08T14:52:29.996Z,35.97
2017-09-08T14:54:59.457Z,36.19
2017-09-08T14:57:29.165Z,35.40
2017-09-08T14:59:58.604Z,34.31
2017-09-08T15:02:28.060Z,34.35
2017-09-08T15:04:57.516Z,35.00
2017-09-08T15:07:27.018Z,35.00
2017-09-08T15:09:56.467Z,35.65
2017-09-08T15:12:25.926Z,35.94
2017-09-08T15:14:55.377Z,35.99
2017-09-08T15:17:24.945Z,35.98
2017-09-08T15:19:54.436Z,36.16
2017-09-08T15:22:23.883Z,35.80
2017-09-08T15:24:53.332Z,35.26
2017-09-08T15:27:22.605Z,35.50
2017-09-08T15:29:52.056Z,35.20
2017-09-08T15:32:21.691Z,35.37
2017-09-08T15:34:51.125Z,35.41
2017-09-08T15:37:20.585Z,35.50
2017-09-08T15:39:50.010Z,35.21
2017-09-08T15:42:19.475Z,34.75
2017-09-08T15:44:48.711Z,34.61
2017-09-08T15:47:18.196Z,34.68
2017-09-08T15:49:47.662Z,34.09
2017-09-08T15:52:16.950Z,34.20
2017-09-08T15:54:46.391Z,33.33
2017-09-08T15:57:15.932Z,32.73
2017-09-08T15:59:45.354Z,32.31
2017-09-08T16:02:14.794Z,30.95
2017-09-08T16:04:44.158Z,30.89
2017-09-08T16:07:13.608Z,30.80
2017-09-08T16:09:43.062Z,30.89
2017-09-08T16:12:12.497Z,30.93
2017-09-08T16:14:41.759Z,31.00
2017-09-08T16:17:11.253Z,30.88
2017-09-08T16:19:40.697Z,30.60
2017-09-08T16:22:10.254Z,30.47
2017-09-08T16:24:39.700Z,30.51
2017-09-08T16:27:09.172Z,30.14
2017-09-08T16:29:38.629Z,29.87
2017-09-08T16:32:08.075Z,29.02
2017-09-08T16:34:37.517Z,28.89
2017-09-08T16:37:06.970Z,29.19
2017-09-08T16:39:36.413Z,28.86
2017-09-08T16:42:05.889Z,28.55
2017-09-08T16:44:35.325Z,27.91
2017-09-08T16:47:04.769Z,27.31
2017-09-08T16:49:34.216Z,27.05
2017-09-08T16:52:03.671Z,26.42
2017-09-08T16:54:33.107Z,26.06
2017-09-08T16:57:02.563Z,25.41
2017-09-08T16:59:32.051Z,25.07
2017-09-08T17:02:01.507Z,24.22
2017-09-08T17:04:30.945Z,23.75
2017-09-08T17:07:00.445Z,23.20
2017-09-08T17:09:29.897Z,22.83
2017-09-08T17:11:59.338Z,22.26
2017-09-08T17:14:28.848Z,21.79
2017-09-08T17:16:58.293Z,21.41
2017-09-08T17:19:27.776Z,21.02
2017-09-08T17:21:57.245Z,20.46
2017-09-08T17:24:26.484Z,20.21
2017-09-08T17:26:55.749Z,19.90
2017-09-08T17:29:25.212Z,19.69
2017-09-08T17:31:54.669Z,19.45
2017-09-08T17:34:24.105Z,19.17
2017-09-08T17:36:53.769Z,18.90
2017-09-08T17:39:23.197Z,18.60
2017-09-08T17:41:52.653Z,18.40
2017-09-08T17:44:22.084Z,18.19
2017-09-08T17:46:51.531Z,17.93
2017-09-08T17:49:20.992Z,17.76
2017-09-08T17:51:50.452Z,17.60
2017-09-08T17:54:19.889Z,17.38
2017-09-08T17:56:49.328Z,17.20
2017-09-08T17:59:18.772Z,17.00
2017-09-08T18:01:48.237Z,16.87
2017-09-08T18:04:17.706Z,16.75
2017-09-08T18:06:47.145Z,16.60
2017-09-08T18:09:16.594Z,16.48
2017-09-08T18:11:46.054Z,16.35
2017-09-08T18:14:15.298Z,16.21
2017-09-08T18:16:44.863Z,16.09
2017-09-08T18:19:14.298Z,15.99
2017-09-08T18:21:43.741Z,15.87
2017-09-08T18:24:12.996Z,15.76
2017-09-08T18:26:42.440Z,15.67
2017-09-08T18:29:11.882Z,15.58
2017-09-08T18:31:41.339Z,15.48
2017-09-08T18:34:10.801Z,15.36
2017-09-08T18:36:40.082Z,15.27
2017-09-08T18:39:09.525Z,15.17
2017-09-08T18:41:38.965Z,15.05
2017-09-08T18:44:08.404Z,14.96
2017-09-08T18:46:37.856Z,14.88
2017-09-08T18:49:07.310Z,14.78
2017-09-08T18:51:36.757Z,14.71
2017-09-08T18:54:06.241Z,14.64
2017-09-08T18:56:35.693Z,14.55
2017-09-08T18:59:05.141Z,14.45
2017-09-08T19:01:34.593Z,14.36
2017-09-08T19:04:04.029Z,14.29
2017-09-08T19:06:33.512Z,14.22
2017-09-08T19:09:02.835Z,14.16
2017-09-08T19:11:32.301Z,14.08
2017-09-08T19:14:01.769Z,14.03
2017-09-08T19:16:31.196Z,13.99
2017-09-08T19:19:00.687Z,13.95
2017-09-08T19:21:30.527Z,13.88
2017-09-08T19:23:59.978Z,13.81
2017-09-08T19:26:29.712Z,13.75
2017-09-08T19:28:59.160Z,13.69
2017-09-08T19:31:28.886Z,13.64
2017-09-08T19:33:58.329Z,13.58
2017-09-08T19:36:28.073Z,13.53
2017-09-08T19:38:57.812Z,13.45
2017-09-08T19:41:27.561Z,13.39
2017-09-08T19:43:57.217Z,13.34
2017-09-08T19:46:26.968Z,13.29
2017-09-08T19:48:56.681Z,13.26
2017-09-08T19:51:26.090Z,13.22
2017-09-08T19:53:55.836Z,13.17
2017-09-08T19:56:25.566Z,13.13
2017-09-08T19:58:55.312Z,13.08
2017-09-08T20:01:25.037Z,13.03
2017-09-08T20:03:54.790Z,13.00
2017-09-08T20:06:24.514Z,12.96
2017-09-08T20:08:54.255Z,12.90
2017-09-08T20:11:23.981Z,12.86
2017-09-08T20:13:53.732Z,12.80
2017-09-08T20:16:23.473Z,12.76
2017-09-08T20:18:53.184Z,12.72
2017-09-08T20:21:22.914Z,12.69
2017-09-08T20:23:52.805Z,12.68
2017-09-08T20:26:22.544Z,12.65
2017-09-08T20:28:52.312Z,12.63
2017-09-08T20:31:22.043Z,12.62
2017-09-08T20:33:51.770Z,12.58
2017-09-08T20:36:21.503Z,12.52
2017-09-08T20:38:51.237Z,12.46
2017-09-08T20:41:20.967Z,12.46
2017-09-08T20:43:50.733Z,12.43
2017-09-08T20:46:20.473Z,12.37
2017-09-08T20:48:50.217Z,12.34
2017-09-08T20:51:20.030Z,12.30
2017-09-08T20:53:49.783Z,12.24
2017-09-08T20:56:19.502Z,12.20
2017-09-08T20:58:49.269Z,12.18
2017-09-08T21:01:18.990Z,12.13
2017-09-08T21:03:48.716Z,12.12
2017-09-08T21:06:18.462Z,12.11
2017-09-08T21:08:47.880Z,12.08
2017-09-08T21:11:17.638Z,12.04
2017-09-08T21:13:47.399Z,12.01
2017-09-08T21:16:17.236Z,11.98
2017-09-08T21:18:47.005Z,11.96
2017-09-08T21:21:16.745Z,11.96
2017-09-08T21:23:46.476Z,11.94
2017-09-08T21:26:16.227Z,11.91
2017-09-08T21:28:45.971Z,11.91
2017-09-08T21:31:15.729Z,11.90
2017-09-08T21:33:45.590Z,11.88
2017-09-08T21:36:15.437Z,11.85
2017-09-08T21:38:45.146Z,11.85
2017-09-08T21:41:14.881Z,11.81
2017-09-08T21:43:44.627Z,11.80
2017-09-08T21:46:14.366Z,11.78
2017-09-08T21:48:44.092Z,11.81
2017-09-08T21:51:13.984Z,11.80
2017-09-08T21:53:43.717Z,11.75
2017-09-08T21:56:13.505Z,11.73
2017-09-08T21:58:43.224Z,11.69
2017-09-08T22:01:12.965Z,11.66
2017-09-08T22:03:42.538Z,11.62
2017-09-08T22:06:12.281Z,11.58
2017-09-08T22:08:42.025Z,11.58
2017-09-08T22:11:11.777Z,11.56
2017-09-08T22:13:41.474Z,11.59
2017-09-08T22:16:11.182Z,11.63
2017-09-08T22:18:40.926Z,11.61
2017-09-08T22:21:10.641Z,11.56
2017-09-08T22:23:40.404Z,11.53
2017-09-08T22:26:11.691Z,11.47
2017-09-08T22:28:41.417Z,11.44
2017-09-08T22:31:11.310Z,11.41
2017-09-08T22:33:41.058Z,11.39
2017-09-08T22:36:10.861Z,11.39
2017-09-08T22:38:40.581Z,11.37
2017-09-08T22:41:10.333Z,11.35
2017-09-08T22:43:40.054Z,11.32
2017-09-08T22:46:09.816Z,11.34
2017-09-08T22:48:39.576Z,11.35
2017-09-08T22:51:09.297Z,11.32
2017-09-08T22:53:39.040Z,11.31
2017-09-08T22:56:08.580Z,11.28
2017-09-08T22:58:38.319Z,11.28
2017-09-08T23:01:08.048Z,11.25
2017-09-08T23:03:37.630Z,11.20
2017-09-08T23:06:07.273Z,11.17
2017-09-08T23:08:37.017Z,11.16
2017-09-08T23:11:06.550Z,11.13
2017-09-08T23:13:36.371Z,11.11
2017-09-08T23:16:06.088Z,11.09
2017-09-08T23:18:35.845Z,11.08
2017-09-08T23:21:05.578Z,11.08
2017-09-08T23:23:35.313Z,11.06
2017-09-08T23:26:05.064Z,11.04
2017-09-08T23:28:34.812Z,11.08
2017-09-08T23:31:04.561Z,11.07
2017-09-08T23:33:34.301Z,11.04
2017-09-08T23:36:04.021Z,11.02
2017-09-08T23:38:33.728Z,10.98
2017-09-08T23:41:03.469Z,10.94
2017-09-08T23:43:33.714Z,10.93
2017-09-08T23:46:03.453Z,10.90
2017-09-08T23:48:32.927Z,10.88
2017-09-08T23:51:02.685Z,10.88
2017-09-08T23:53:32.449Z,10.84
2017-09-08T23:56:02.171Z,10.83
2017-09-08T23:58:31.903Z,10.84
